createdAt,value
2023-03-15T06:01:39.025Z,6.10
2023-03-15T06:04:20.669Z,6.97
2023-03-15T06:06:47.291Z,6.78
2023-03-15T06:09:14.617Z,7.18
2023-03-15T06:11:41.893Z,6.32
2023-03-15T06:14:12.641Z,6.35
2023-03-15T06:16:51.245Z,5.82
2023-03-15T06:19:20.136Z,6.35
2023-03-15T06:21:47.869Z,7.03
2023-03-15T06:24:26.466Z,6.70
2023-03-15T06:26:54.803Z,6.13
2023-03-15T06:29:23.235Z,6.70
2023-03-15T06:31:52.776Z,7.00
2023-03-15T06:34:21.424Z,6.22
2023-03-15T06:36:49.693Z,5.68
2023-03-15T06:39:17.168Z,6.28
2023-03-15T06:41:44.175Z,6.10
2023-03-15T06:44:17.345Z,6.25
2023-03-15T06:46:44.482Z,6.28
2023-03-15T06:49:11.964Z,6.13
2023-03-15T06:51:38.766Z,6.95
2023-03-15T06:54:06.087Z,6.25
2023-03-15T06:56:37.207Z,7.20
2023-03-15T06:59:04.818Z,6.78
2023-03-15T07:01:31.840Z,5.47
2023-03-15T07:03:59.047Z,6.45
2023-03-15T07:06:27.550Z,6.32
2023-03-15T07:08:54.527Z,6.90
2023-03-15T07:11:21.148Z,5.53
2023-03-15T07:13:48.414Z,6.00
2023-03-15T07:16:15.008Z,6.22
2023-03-15T07:18:41.914Z,5.95
2023-03-15T07:21:08.829Z,6.40
2023-03-15T07:23:35.923Z,6.07
2023-03-15T07:26:02.776Z,6.03
2023-03-15T07:28:30.050Z,5.85
2023-03-15T07:31:02.037Z,6.00
2023-03-15T07:33:31.101Z,6.20
2023-03-15T07:35:58.211Z,5.87
2023-03-15T07:38:29.078Z,5.85
2023-03-15T07:40:56.552Z,6.03
2023-03-15T07:43:24.369Z,5.57
2023-03-15T07:45:59.516Z,5.50
2023-03-15T07:48:26.718Z,6.35
2023-03-15T07:50:53.268Z,7.32
2023-03-15T07:53:20.579Z,6.10
2023-03-15T07:55:48.032Z,6.10
2023-03-15T07:58:15.653Z,5.40
2023-03-15T08:00:42.652Z,5.05
2023-03-15T08:03:09.934Z,5.88
2023-03-15T08:05:36.898Z,5.95
2023-03-15T08:08:04.204Z,5.40
2023-03-15T08:10:30.791Z,5.15
2023-03-15T08:12:57.976Z,5.72
2023-03-15T08:15:24.606Z,5.10
2023-03-15T08:17:51.797Z,5.50
2023-03-15T08:20:18.502Z,4.63
2023-03-15T08:22:48.410Z,5.15
2023-03-15T08:25:17.221Z,5.75
2023-03-15T08:27:44.819Z,5.38
2023-03-15T08:30:13.513Z,4.43
2023-03-15T08:32:42.713Z,5.53
2023-03-15T08:35:10.306Z,5.30
2023-03-15T08:37:37.470Z,4.72
2023-03-15T08:40:11.299Z,5.38
2023-03-15T08:42:39.408Z,4.78
2023-03-15T08:45:08.091Z,5.07
2023-03-15T08:47:35.643Z,5.75
2023-03-15T08:50:07.074Z,5.80
2023-03-15T08:52:34.806Z,5.68
2023-03-15T08:55:01.705Z,4.95
2023-03-15T08:57:30.038Z,4.80
2023-03-15T08:59:57.546Z,5.00
2023-03-15T09:02:25.059Z,6.10
2023-03-15T09:04:53.431Z,4.57
2023-03-15T09:07:22.168Z,5.05
2023-03-15T09:09:48.788Z,5.18
2023-03-15T09:12:17.404Z,5.00
2023-03-15T09:14:44.253Z,4.22
2023-03-15T09:17:11.953Z,4.63
2023-03-15T09:19:39.242Z,4.65
2023-03-15T09:22:16.698Z,4.80
2023-03-15T09:24:52.473Z,4.20
2023-03-15T09:27:19.556Z,4.33
2023-03-15T09:29:46.121Z,5.10
2023-03-15T09:32:13.825Z,4.72
2023-03-15T09:34:42.223Z,4.55
2023-03-15T09:37:10.003Z,4.80
2023-03-15T09:39:36.576Z,5.78
2023-03-15T09:42:06.608Z,4.20
2023-03-15T09:44:48.175Z,3.95
2023-03-15T09:47:40.513Z,4.13
2023-03-15T09:50:21.286Z,4.13
2023-03-15T09:53:02.734Z,4.18
2023-03-15T09:55:29.966Z,3.75
2023-03-15T09:58:00.164Z,4.03
2023-03-15T10:00:41.536Z,3.42
2023-03-15T10:03:23.535Z,4.20
2023-03-15T10:05:57.192Z,3.70
2023-03-15T10:08:24.984Z,3.67
2023-03-15T10:11:20.835Z,3.42
2023-03-15T10:13:50.342Z,3.75
2023-03-15T10:16:23.569Z,3.38
2023-03-15T10:19:31.885Z,3.97
2023-03-15T10:22:09.020Z,2.90
2023-03-15T10:25:20.853Z,3.30
2023-03-15T10:27:52.955Z,3.22
2023-03-15T10:30:23.844Z,3.10
2023-03-15T10:33:04.228Z,3.03
2023-03-15T10:35:32.149Z,4.35
2023-03-15T10:37:59.697Z,4.03
2023-03-15T10:40:43.191Z,3.42
2023-03-15T10:43:30.550Z,3.13
2023-03-15T10:46:11.408Z,3.20
2023-03-15T10:48:41.519Z,3.75
2023-03-15T10:51:20.977Z,3.00
2023-03-15T10:54:07.360Z,2.70
2023-03-15T10:57:05.929Z,3.03
2023-03-15T10:59:36.181Z,2.20
2023-03-15T11:02:12.572Z,2.50
2023-03-15T11:05:12.328Z,2.40
2023-03-15T11:07:55.445Z,3.10
2023-03-15T11:10:25.183Z,2.17
2023-03-15T11:13:21.068Z,2.53
2023-03-15T11:15:52.826Z,2.65
2023-03-15T11:18:27.106Z,2.33
2023-03-15T11:20:56.240Z,2.30
2023-03-15T11:23:34.837Z,2.17
2023-03-15T11:26:01.557Z,2.35
2023-03-15T11:28:31.873Z,2.15
2023-03-15T11:31:00.853Z,2.40
2023-03-15T11:33:46.216Z,1.98
2023-03-15T11:36:20.471Z,2.53
2023-03-15T11:38:48.261Z,1.25
2023-03-15T11:41:20.509Z,1.73
2023-03-15T11:43:56.973Z,1.88
2023-03-15T11:46:43.437Z,2.00
2023-03-15T11:49:27.049Z,2.03
2023-03-15T11:51:55.946Z,2.33
2023-03-15T11:54:26.408Z,1.77
2023-03-15T11:57:14.909Z,2.45
2023-03-15T11:59:46.076Z,2.17
2023-03-15T12:02:15.583Z,1.45
2023-03-15T12:04:44.965Z,1.60
2023-03-15T12:07:17.462Z,1.50
2023-03-15T12:10:15.163Z,1.88
2023-03-15T12:12:47.090Z,1.77
2023-03-15T12:15:19.865Z,2.47
2023-03-15T12:18:08.819Z,2.33
2023-03-15T12:20:38.585Z,1.58
2023-03-15T12:23:08.607Z,1.17
2023-03-15T12:28:23.620Z,1.15
2023-03-15T12:30:56.747Z,1.30
2023-03-15T12:33:25.579Z,1.73
2023-03-15T12:36:00.865Z,1.60
2023-03-15T12:38:36.897Z,1.45
2023-03-15T12:41:29.640Z,1.42
2023-03-15T12:44:24.395Z,0.98
2023-03-15T12:46:50.955Z,1.27
2023-03-15T12:49:38.586Z,1.58
2023-03-15T12:52:10.912Z,1.63
2023-03-15T12:54:56.849Z,1.27
2023-03-15T12:57:27.773Z,1.33
2023-03-15T12:59:59.838Z,1.60
2023-03-15T13:02:42.060Z,1.00
2023-03-15T13:05:10.276Z,1.80
2023-03-15T13:07:56.830Z,1.17
2023-03-15T13:10:37.259Z,1.05
2023-03-15T13:13:06.496Z,1.40
2023-03-15T13:16:02.534Z,1.02
2023-03-15T13:18:34.630Z,1.20
2023-03-15T13:21:01.115Z,1.40
2023-03-15T13:23:28.238Z,1.30
2023-03-15T13:26:13.750Z,1.20
2023-03-15T13:28:47.037Z,1.30
2023-03-15T13:31:21.941Z,1.35
2023-03-15T13:33:57.775Z,1.10
2023-03-15T13:36:46.308Z,1.40
2023-03-15T13:39:21.118Z,1.23
2023-03-15T13:41:47.703Z,1.17
2023-03-15T13:44:20.245Z,1.63
2023-03-15T13:46:49.301Z,2.67
2023-03-15T13:49:16.906Z,2.08
2023-03-15T13:51:45.070Z,1.92
2023-03-15T13:54:30.873Z,2.00
2023-03-15T13:57:03.579Z,1.50
2023-03-15T13:59:53.081Z,1.40
2023-03-15T14:02:37.770Z,1.13
2023-03-15T14:05:11.329Z,0.95
2023-03-15T14:07:37.915Z,1.30
2023-03-15T14:10:17.396Z,1.20
2023-03-15T14:12:45.125Z,2.00
2023-03-15T14:15:41.913Z,1.27
2023-03-15T14:18:08.433Z,1.10
2023-03-15T14:20:42.238Z,1.20
2023-03-15T14:23:12.530Z,1.15
2023-03-15T14:25:39.882Z,1.33
2023-03-15T14:28:06.954Z,1.30
2023-03-15T14:30:37.620Z,2.40
2023-03-15T14:33:07.497Z,1.33
2023-03-15T14:35:37.907Z,1.35
2023-03-15T14:38:08.514Z,1.42
2023-03-15T14:40:38.907Z,1.70
2023-03-15T14:43:07.404Z,1.23
2023-03-15T14:45:37.528Z,1.42
2023-03-15T14:48:15.523Z,1.60
2023-03-15T14:50:46.084Z,1.45
2023-03-15T14:53:18.350Z,1.17
2023-03-15T14:55:45.807Z,1.38
2023-03-15T14:58:18.316Z,1.40
2023-03-15T15:00:48.800Z,1.40
2023-03-15T15:03:41.252Z,1.60
2023-03-15T15:06:12.616Z,1.42
2023-03-15T15:08:42.957Z,1.48
2023-03-15T15:11:10.794Z,1.25
2023-03-15T15:13:38.881Z,1.27
2023-03-15T15:16:06.774Z,1.02
2023-03-15T15:18:35.225Z,1.00
2023-03-15T15:21:07.680Z,1.70
2023-03-15T15:23:47.434Z,1.20
2023-03-15T15:26:26.412Z,1.33
2023-03-15T15:28:53.360Z,2.03
2023-03-15T15:31:25.595Z,1.95
2023-03-15T15:33:53.862Z,1.73
2023-03-15T15:36:27.961Z,6.95
2023-03-15T15:38:55.362Z,1.90
2023-03-15T15:41:25.993Z,1.80
2023-03-15T15:43:53.012Z,3.70
2023-03-15T15:46:20.234Z,2.88
2023-03-15T15:48:46.896Z,4.38
2023-03-15T15:51:19.160Z,2.40
2023-03-15T15:53:46.176Z,1.60
2023-03-15T15:56:13.921Z,1.23
2023-03-15T15:58:44.698Z,2.20
2023-03-15T16:01:16.244Z,1.83
2023-03-15T16:03:43.237Z,2.10
2023-03-15T16:06:19.413Z,1.30
2023-03-15T16:08:47.654Z,1.35
2023-03-15T16:11:16.700Z,1.80
2023-03-15T16:13:45.429Z,1.60
2023-03-15T16:16:17.246Z,1.30
2023-03-15T16:18:44.525Z,1.90
2023-03-15T16:21:15.905Z,1.45
2023-03-15T16:23:43.934Z,1.23
2023-03-15T16:26:16.534Z,1.70
2023-03-15T16:28:43.914Z,2.97
2023-03-15T16:31:12.718Z,3.15
2023-03-15T16:33:39.670Z,3.30
2023-03-15T16:36:07.092Z,2.83
2023-03-15T16:38:33.664Z,1.95
2023-03-15T16:41:01.340Z,1.92
2023-03-15T16:43:28.674Z,1.50
2023-03-15T16:45:55.737Z,1.25
2023-03-15T16:48:22.336Z,1.10
2023-03-15T16:50:49.730Z,1.30
2023-03-15T16:53:16.403Z,3.10
2023-03-15T16:55:43.353Z,3.83
2023-03-15T16:58:19.700Z,4.30
2023-03-15T17:00:48.546Z,5.45
2023-03-15T17:03:16.585Z,4.15
2023-03-15T17:05:46.718Z,3.40
2023-03-15T17:08:17.580Z,2.63
2023-03-15T17:10:44.563Z,2.50
2023-03-15T17:13:15.291Z,2.05
2023-03-15T17:15:42.574Z,1.50
2023-03-15T17:18:18.917Z,2.38
2023-03-15T17:20:48.744Z,1.95
2023-03-15T17:23:16.193Z,1.45
2023-03-15T17:25:43.101Z,1.45
2023-03-15T17:28:10.350Z,1.33
2023-03-15T17:30:37.956Z,1.65
2023-03-15T17:33:05.858Z,1.35
2023-03-15T17:35:45.898Z,1.40
2023-03-15T17:38:21.685Z,1.52
2023-03-15T17:40:49.195Z,2.05
2023-03-15T17:43:16.903Z,2.75
2023-03-15T17:45:44.469Z,2.90
2023-03-15T17:48:11.825Z,2.50
2023-03-15T17:50:40.307Z,3.25
2023-03-15T17:53:16.610Z,3.60
2023-03-15T17:55:44.942Z,3.75
2023-03-15T17:58:22.893Z,4.05
2023-03-15T18:00:51.522Z,3.30
2023-03-15T18:03:18.430Z,3.28
2023-03-15T18:05:45.853Z,3.70
2023-03-15T18:08:16.849Z,5.68
2023-03-15T18:10:45.129Z,8.27
2023-03-15T18:13:14.702Z,20.00
2023-03-15T18:15:41.906Z,14.63
2023-03-15T18:18:08.842Z,9.50
2023-03-15T18:20:36.533Z,5.57
2023-03-15T18:23:04.906Z,3.90
2023-03-15T18:25:34.298Z,3.65
2023-03-15T18:28:01.784Z,2.53
2023-03-15T18:30:30.109Z,2.15
2023-03-15T18:32:57.892Z,2.65
2023-03-15T18:35:29.512Z,2.25
2023-03-15T18:37:57.743Z,2.15
2023-03-15T18:40:27.719Z,2.55
2023-03-15T18:42:57.301Z,1.92
2023-03-15T18:45:27.375Z,1.83
2023-03-15T18:47:54.783Z,1.27
2023-03-15T18:50:21.800Z,1.35
2023-03-15T18:52:49.320Z,1.33
2023-03-15T18:55:19.045Z,2.30
2023-03-15T19:00:23.671Z,1.63
2023-03-15T19:02:50.847Z,1.55
2023-03-15T19:05:18.814Z,1.67
2023-03-15T19:07:47.615Z,3.30
2023-03-15T19:10:19.366Z,5.38
2023-03-15T19:12:47.225Z,4.50
2023-03-15T19:15:17.338Z,3.60
2023-03-15T19:17:47.139Z,1.90
2023-03-15T19:20:16.326Z,1.80
2023-03-15T19:22:45.176Z,2.47
2023-03-15T19:25:13.816Z,1.98
2023-03-15T19:27:42.291Z,2.13
2023-03-15T19:30:14.334Z,2.10
2023-03-15T19:32:43.041Z,1.73
2023-03-15T19:35:09.756Z,2.15
2023-03-15T19:37:37.088Z,4.07
2023-03-15T19:40:04.612Z,3.58
2023-03-15T19:42:31.821Z,3.95
2023-03-15T19:44:58.413Z,3.20
2023-03-15T19:47:25.649Z,4.30
2023-03-15T19:49:52.270Z,3.50
2023-03-15T19:52:19.504Z,6.10
2023-03-15T19:54:47.392Z,7.97
2023-03-15T19:57:14.593Z,6.00
2023-03-15T19:59:41.605Z,4.72
2023-03-15T20:02:11.700Z,3.95
2023-03-15T20:04:38.925Z,4.05
2023-03-15T20:07:06.839Z,5.15
2023-03-15T20:09:38.657Z,6.40
2023-03-15T20:12:13.157Z,6.70
2023-03-15T20:14:39.864Z,6.47
2023-03-15T20:17:07.583Z,6.22
2023-03-15T20:19:35.856Z,6.07
2023-03-15T20:22:03.684Z,6.75
2023-03-15T20:24:30.430Z,5.75
2023-03-15T20:26:57.682Z,7.43
2023-03-15T20:29:24.315Z,7.25
2023-03-15T20:31:53.591Z,7.28
2023-03-15T20:34:20.523Z,7.10
2023-03-15T20:36:47.846Z,7.82
2023-03-15T20:39:15.220Z,7.82
2023-03-15T20:41:42.430Z,6.55
2023-03-15T20:44:09.707Z,5.75
2023-03-15T20:46:37.476Z,4.13
2023-03-15T20:49:04.042Z,3.40
2023-03-15T20:51:30.972Z,3.13
2023-03-15T20:53:57.615Z,3.15
2023-03-15T20:56:25.532Z,3.53
2023-03-15T20:58:52.174Z,3.00
2023-03-15T21:01:20.767Z,3.20
2023-03-15T21:03:48.008Z,3.15
2023-03-15T21:06:15.326Z,2.78
2023-03-15T21:08:42.340Z,3.30
2023-03-15T21:11:09.954Z,3.03
2023-03-15T21:13:36.629Z,3.60
2023-03-15T21:16:04.938Z,3.10
2023-03-15T21:18:32.991Z,3.50
2023-03-15T21:21:03.833Z,2.80
2023-03-15T21:23:31.598Z,2.85
2023-03-15T21:26:07.601Z,3.28
2023-03-15T21:28:34.323Z,3.67
